createdAt,value
2023-02-18T00:01:35.183Z,13.65
2023-02-18T00:04:02.231Z,13.30
2023-02-18T00:06:32.308Z,11.43
2023-02-18T00:09:02.200Z,11.63
2023-02-18T00:11:31.487Z,12.15
2023-02-18T00:14:01.713Z,12.60
2023-02-18T00:16:29.994Z,10.38
2023-02-18T00:19:02.893Z,11.65
2023-02-18T00:21:30.768Z,11.63
2023-02-18T00:23:57.682Z,11.57
2023-02-18T00:26:24.979Z,11.55
2023-02-18T00:28:53.041Z,12.23
2023-02-18T00:31:31.888Z,12.73
2023-02-18T00:33:59.557Z,12.35
2023-02-18T00:36:27.348Z,12.02
2023-02-18T00:38:57.202Z,11.73
2023-02-18T00:41:26.282Z,11.25
2023-02-18T00:43:53.308Z,12.63
2023-02-18T00:46:20.842Z,13.65
2023-02-18T00:48:47.760Z,12.82
2023-02-18T00:51:14.846Z,12.02
2023-02-18T00:53:41.779Z,11.50
2023-02-18T00:56:09.362Z,11.77
2023-02-18T00:58:37.167Z,12.70
2023-02-18T01:01:07.309Z,11.88
2023-02-18T01:03:34.751Z,12.05
2023-02-18T01:06:01.469Z,12.57
2023-02-18T01:08:28.278Z,11.13
2023-02-18T01:10:57.698Z,9.85
2023-02-18T01:13:25.110Z,11.45
2023-02-18T01:15:52.222Z,11.30
2023-02-18T01:18:20.630Z,11.93
2023-02-18T01:20:47.850Z,12.02
2023-02-18T01:23:15.258Z,11.48
2023-02-18T01:25:42.164Z,10.93
2023-02-18T01:28:12.106Z,11.57
2023-02-18T01:30:39.007Z,12.18
2023-02-18T01:33:06.424Z,11.32
2023-02-18T01:35:33.551Z,10.70
2023-02-18T01:38:00.395Z,12.25
2023-02-18T01:40:29.510Z,12.13
2023-02-18T01:42:56.525Z,11.52
2023-02-18T01:45:38.166Z,11.40
2023-02-18T01:48:10.230Z,10.75
2023-02-18T01:50:41.879Z,11.65
2023-02-18T01:55:37.241Z,11.35
2023-02-18T01:58:04.058Z,11.32
2023-02-18T02:00:32.895Z,10.60
2023-02-18T02:02:59.868Z,11.18
2023-02-18T02:05:31.920Z,9.75
2023-02-18T02:08:00.176Z,12.90
2023-02-18T02:10:51.334Z,10.80
2023-02-18T02:14:01.034Z,11.20
2023-02-18T02:16:41.663Z,11.27
2023-02-18T02:19:11.284Z,11.77
2023-02-18T02:22:18.334Z,11.70
2023-02-18T02:24:51.884Z,13.10
2023-02-18T02:27:24.229Z,12.43
2023-02-18T02:30:42.264Z,10.57
2023-02-18T02:33:37.329Z,9.43
2023-02-18T02:36:17.197Z,8.55
2023-02-18T02:38:54.604Z,11.18
2023-02-18T02:41:36.547Z,11.43
2023-02-18T02:44:21.145Z,11.25
2023-02-18T02:46:57.445Z,10.55
2023-02-18T02:49:26.748Z,10.90
2023-02-18T02:51:53.417Z,12.35
2023-02-18T02:54:23.672Z,12.13
2023-02-18T02:56:50.957Z,10.20
2023-02-18T02:59:26.317Z,11.13
2023-02-18T03:01:58.883Z,11.25
2023-02-18T03:04:31.535Z,10.65
2023-02-18T03:07:19.982Z,10.95
2023-02-18T03:10:13.597Z,12.73
2023-02-18T03:13:28.196Z,13.00
2023-02-18T03:16:10.210Z,12.27
2023-02-18T03:18:51.864Z,14.32
2023-02-18T03:21:23.283Z,13.57
2023-02-18T03:23:59.031Z,14.27
2023-02-18T03:26:27.665Z,16.27
2023-02-18T03:29:00.047Z,15.15
2023-02-18T03:31:30.591Z,16.20
2023-02-18T03:34:06.396Z,15.98
2023-02-18T03:36:34.867Z,18.70
2023-02-18T03:39:07.671Z,17.88
2023-02-18T03:41:35.680Z,19.88
2023-02-18T03:44:06.050Z,19.50
2023-02-18T03:46:34.233Z,22.38
2023-02-18T03:49:01.942Z,14.90
2023-02-18T03:51:28.898Z,23.98
2023-02-18T03:53:55.642Z,19.48
2023-02-18T03:56:22.554Z,19.23
2023-02-18T03:58:49.447Z,20.73
2023-02-18T04:01:16.488Z,20.13
2023-02-18T04:03:43.319Z,14.45
2023-02-18T04:06:10.705Z,18.83
2023-02-18T04:08:37.655Z,15.32
2023-02-18T04:11:05.229Z,12.32
2023-02-18T04:13:32.417Z,15.63
2023-02-18T04:15:59.274Z,16.85
2023-02-18T04:18:26.123Z,16.85
2023-02-18T04:20:52.951Z,17.52
2023-02-18T04:23:19.697Z,16.95
2023-02-18T04:25:46.444Z,14.02
2023-02-18T04:28:15.296Z,16.67
2023-02-18T04:30:42.395Z,16.15
2023-02-18T04:33:09.546Z,16.33
2023-02-18T04:35:36.925Z,15.73
2023-02-18T04:38:04.097Z,13.25
2023-02-18T04:40:31.016Z,13.23
2023-02-18T04:42:58.956Z,16.90
2023-02-18T04:45:27.127Z,15.82
2023-02-18T04:47:54.167Z,13.63
2023-02-18T04:50:21.500Z,15.02
2023-02-18T04:52:48.201Z,12.73
2023-02-18T04:55:14.964Z,13.07
2023-02-18T04:57:41.750Z,15.38
2023-02-18T05:00:09.760Z,14.85
2023-02-18T05:02:36.494Z,10.88
2023-02-18T05:05:03.652Z,16.00
2023-02-18T05:07:30.958Z,16.23
2023-02-18T05:09:57.727Z,15.60
2023-02-18T05:12:24.482Z,15.77
2023-02-18T05:14:51.209Z,16.33
2023-02-18T05:17:17.981Z,15.30
2023-02-18T05:19:44.777Z,15.13
2023-02-18T05:22:11.515Z,14.10
2023-02-18T05:24:38.395Z,11.02
2023-02-18T05:27:05.276Z,10.70
2023-02-18T05:29:32.140Z,14.38
2023-02-18T05:31:59.026Z,11.85
2023-02-18T05:34:25.948Z,13.35
2023-02-18T05:36:52.788Z,13.93
2023-02-18T05:39:19.577Z,15.00
2023-02-18T05:41:46.436Z,15.02
2023-02-18T05:44:31.306Z,14.98
2023-02-18T05:47:03.200Z,12.75
2023-02-18T05:49:31.953Z,15.05
2023-02-18T05:51:59.466Z,13.57
2023-02-18T05:54:26.777Z,13.80
2023-02-18T05:56:54.124Z,15.32
2023-02-18T05:59:21.725Z,15.52
2023-02-18T06:01:49.183Z,15.73
2023-02-18T06:04:16.338Z,14.35
2023-02-18T06:06:43.362Z,15.63
2023-02-18T06:09:10.561Z,16.40
2023-02-18T06:11:37.976Z,15.52
2023-02-18T06:14:05.255Z,15.00
2023-02-18T06:16:32.531Z,14.23
2023-02-18T06:18:59.798Z,13.65
2023-02-18T06:21:26.728Z,12.82
2023-02-18T06:23:53.558Z,12.98
2023-02-18T06:26:20.406Z,14.65
2023-02-18T06:28:47.211Z,14.15
2023-02-18T06:31:14.097Z,15.20
2023-02-18T06:33:40.994Z,14.38
2023-02-18T06:36:11.876Z,13.88
2023-02-18T06:38:43.859Z,13.73
2023-02-18T06:41:12.922Z,12.25
2023-02-18T06:43:40.004Z,10.82
2023-02-18T06:46:07.930Z,11.65
2023-02-18T06:48:35.267Z,12.02
2023-02-18T06:51:02.191Z,12.30
2023-02-18T06:53:29.124Z,10.95
2023-02-18T06:55:56.224Z,11.10
2023-02-18T06:58:23.421Z,11.18
2023-02-18T07:00:51.195Z,10.45
2023-02-18T07:03:18.015Z,9.48
2023-02-18T07:05:45.049Z,10.65
2023-02-18T07:08:12.449Z,9.63
2023-02-18T07:10:39.441Z,9.43
2023-02-18T07:13:06.298Z,9.32
2023-02-18T07:15:33.501Z,7.60
2023-02-18T07:18:00.480Z,8.35
2023-02-18T07:20:27.845Z,8.63
2023-02-18T07:22:54.948Z,8.10
2023-02-18T07:25:23.463Z,8.00
2023-02-18T07:27:51.286Z,8.43
2023-02-18T07:30:20.138Z,7.50
2023-02-18T07:32:47.052Z,7.65
2023-02-18T07:35:15.967Z,7.70
2023-02-18T07:37:47.918Z,8.43
2023-02-18T07:40:17.118Z,7.65
2023-02-18T07:42:44.084Z,8.00
2023-02-18T07:45:12.336Z,9.00
2023-02-18T07:47:39.498Z,8.48
2023-02-18T07:50:07.063Z,8.90
2023-02-18T07:52:33.848Z,8.38
2023-02-18T07:55:00.697Z,8.82
2023-02-18T07:57:27.641Z,8.40
2023-02-18T07:59:54.510Z,7.72
2023-02-18T08:02:23.838Z,8.25
2023-02-18T08:04:50.745Z,8.52
2023-02-18T08:07:20.661Z,8.05
2023-02-18T08:09:49.714Z,8.20
2023-02-18T08:12:16.619Z,7.43
2023-02-18T08:14:43.490Z,7.68
2023-02-18T08:17:10.420Z,7.80
2023-02-18T08:19:37.238Z,6.25
2023-02-18T08:22:04.183Z,6.10
2023-02-18T08:24:30.975Z,7.13
2023-02-18T08:27:01.141Z,7.05
2023-02-18T08:29:28.920Z,7.18
2023-02-18T08:31:58.274Z,7.13
2023-02-18T08:34:26.015Z,6.93
2023-02-18T08:36:53.178Z,6.75
2023-02-18T08:39:20.163Z,6.78
2023-02-18T08:41:47.080Z,5.40
2023-02-18T08:44:14.074Z,6.93
2023-02-18T08:46:40.946Z,6.78
2023-02-18T08:49:07.857Z,7.45
2023-02-18T08:51:35.301Z,8.38
2023-02-18T08:54:02.282Z,7.35
2023-02-18T08:56:29.228Z,7.38
2023-02-18T08:58:56.064Z,6.72
2023-02-18T09:01:23.048Z,7.43
2023-02-18T09:03:50.016Z,7.25
2023-02-18T09:06:16.964Z,6.63
2023-02-18T09:08:43.897Z,6.75
2023-02-18T09:11:11.615Z,7.28
2023-02-18T09:13:39.389Z,6.78
2023-02-18T09:16:09.000Z,7.82
2023-02-18T09:18:36.079Z,7.63
2023-02-18T09:21:05.754Z,7.95
2023-02-18T09:23:33.710Z,8.48
2023-02-18T09:26:04.018Z,7.93
2023-02-18T09:28:30.967Z,7.13
2023-02-18T09:30:57.856Z,6.78
2023-02-18T09:33:24.612Z,7.32
2023-02-18T09:35:51.378Z,8.32
2023-02-18T09:38:18.618Z,6.82
2023-02-18T09:40:49.685Z,7.65
2023-02-18T09:43:29.397Z,7.28
2023-02-18T09:45:58.389Z,7.32
2023-02-18T09:48:29.260Z,7.90
2023-02-18T09:50:56.455Z,6.93
2023-02-18T09:53:24.453Z,7.15
2023-02-18T09:55:54.225Z,7.80
2023-02-18T09:58:25.270Z,7.30
2023-02-18T10:01:16.014Z,7.70
2023-02-18T10:03:44.378Z,7.78
2023-02-18T10:06:32.495Z,7.55
2023-02-18T10:09:07.419Z,7.97
2023-02-18T10:11:49.393Z,7.47
2023-02-18T10:14:16.489Z,6.97
2023-02-18T10:16:48.820Z,7.40
2023-02-18T10:19:33.691Z,8.18
2023-02-18T10:22:02.749Z,8.02
2023-02-18T10:24:46.506Z,8.32
2023-02-18T10:27:20.910Z,7.75
2023-02-18T10:29:48.866Z,8.13
2023-02-18T10:32:31.884Z,8.57
2023-02-18T10:35:21.900Z,8.00
2023-02-18T10:37:48.564Z,7.90
2023-02-18T10:40:21.108Z,7.40
2023-02-18T10:43:25.411Z,8.60
2023-02-18T10:46:13.844Z,7.50
2023-02-18T10:48:49.838Z,7.45
2023-02-18T10:51:23.363Z,7.72
2023-02-18T10:53:53.328Z,7.78
2023-02-18T10:56:36.344Z,8.15
2023-02-18T10:59:30.569Z,8.10
2023-02-18T11:02:03.646Z,8.85
2023-02-18T11:04:45.647Z,7.53
2023-02-18T11:09:48.062Z,7.32
2023-02-18T11:12:27.729Z,7.45
2023-02-18T11:15:19.180Z,8.23
2023-02-18T11:17:49.014Z,7.10
2023-02-18T11:20:32.282Z,7.55
2023-02-18T11:23:15.967Z,9.00
2023-02-18T11:26:01.342Z,7.47
2023-02-18T11:28:31.165Z,8.75
2023-02-18T11:31:02.098Z,7.45
2023-02-18T11:33:42.472Z,8.17
2023-02-18T11:36:21.655Z,7.75
2023-02-18T11:38:52.530Z,7.55
2023-02-18T11:41:42.711Z,8.50
2023-02-18T11:44:48.098Z,7.05
2023-02-18T11:47:14.934Z,7.25
2023-02-18T11:49:43.660Z,8.48
2023-02-18T11:52:32.885Z,7.82
2023-02-18T11:55:02.128Z,7.28
2023-02-18T11:57:34.087Z,6.88
2023-02-18T12:00:01.807Z,7.05
2023-02-18T12:02:35.155Z,7.45
2023-02-18T12:05:11.736Z,7.60
2023-02-18T12:08:03.252Z,7.15
2023-02-18T12:10:43.066Z,7.53
2023-02-18T12:13:31.512Z,8.15
2023-02-18T12:15:58.281Z,7.30
2023-02-18T12:18:45.955Z,6.53
2023-02-18T12:21:37.440Z,7.05
2023-02-18T12:24:17.840Z,6.90
2023-02-18T12:26:57.135Z,6.70
2023-02-18T12:29:30.218Z,6.30
2023-02-18T12:32:12.757Z,6.32
2023-02-18T12:34:56.088Z,7.10
2023-02-18T12:37:28.738Z,6.70
2023-02-18T12:40:35.327Z,6.72
2023-02-18T12:43:14.044Z,6.43
2023-02-18T12:46:17.608Z,5.85
2023-02-18T12:49:05.853Z,5.90
2023-02-18T12:51:51.167Z,6.18
2023-02-18T12:54:33.996Z,6.32
2023-02-18T12:57:34.995Z,5.93
2023-02-18T13:00:16.898Z,6.35
2023-02-18T13:05:38.168Z,5.57
2023-02-18T13:08:24.295Z,6.55
2023-02-18T13:11:23.644Z,6.35
2023-02-18T13:14:03.694Z,6.00
2023-02-18T13:16:32.406Z,6.63
2023-02-18T13:18:59.175Z,6.82
2023-02-18T13:21:27.274Z,7.50
2023-02-18T13:24:02.803Z,6.38
2023-02-18T13:26:32.611Z,6.10
2023-02-18T13:29:32.678Z,6.72
2023-02-18T13:32:03.347Z,6.35
2023-02-18T13:34:33.488Z,6.20
2023-02-18T13:37:15.300Z,6.57
2023-02-18T13:39:52.895Z,5.50
2023-02-18T13:42:31.726Z,5.43
2023-02-18T13:44:58.564Z,6.40
2023-02-18T13:47:46.689Z,6.80
2023-02-18T13:50:22.874Z,6.63
2023-02-18T13:52:51.031Z,6.40
2023-02-18T13:55:23.927Z,7.28
2023-02-18T13:57:55.049Z,6.88
2023-02-18T14:00:34.268Z,6.57
2023-02-18T14:03:18.231Z,6.05
2023-02-18T14:05:45.322Z,6.68
2023-02-18T14:08:29.374Z,6.22
2023-02-18T14:11:22.803Z,6.07
2023-02-18T14:13:55.101Z,6.57
2023-02-18T14:16:22.174Z,6.32
2023-02-18T14:18:57.965Z,6.13
2023-02-18T14:21:41.028Z,6.50
2023-02-18T14:24:10.756Z,6.60
2023-02-18T14:26:44.692Z,6.75
2023-02-18T14:29:32.467Z,6.55
2023-02-18T14:32:09.720Z,7.35
2023-02-18T14:35:08.644Z,6.35
2023-02-18T14:38:06.398Z,6.60
2023-02-18T14:40:40.110Z,7.70
2023-02-18T14:43:22.755Z,6.07
2023-02-18T14:46:17.070Z,7.40
2023-02-18T14:48:57.513Z,7.43
2023-02-18T14:51:27.176Z,6.20
2023-02-18T14:53:53.952Z,6.75
2023-02-18T14:56:22.647Z,7.57
2023-02-18T14:58:56.931Z,6.88
2023-02-18T15:01:35.173Z,6.32
2023-02-18T15:04:03.717Z,6.70
2023-02-18T15:06:36.407Z,6.32
2023-02-18T15:09:20.704Z,6.18
2023-02-18T15:12:01.466Z,6.18
2023-02-18T15:14:38.602Z,5.85
2023-02-18T15:17:08.621Z,6.53
2023-02-18T15:19:51.268Z,5.93
2023-02-18T15:22:21.194Z,6.32
2023-02-18T15:24:49.770Z,5.80
2023-02-18T15:27:23.588Z,6.20
2023-02-18T15:29:58.884Z,6.38
2023-02-18T15:32:28.494Z,5.85
2023-02-18T15:35:01.953Z,5.70
2023-02-18T15:37:31.656Z,5.95
2023-02-18T15:39:58.767Z,6.60
2023-02-18T15:42:37.301Z,5.93
2023-02-18T15:45:20.208Z,5.50
2023-02-18T15:47:51.578Z,5.82
2023-02-18T15:50:45.114Z,5.38
2023-02-18T15:53:18.634Z,5.50
2023-02-18T15:55:53.959Z,5.78
2023-02-18T15:58:28.857Z,4.93
2023-02-18T16:00:58.363Z,5.05
2023-02-18T16:03:30.881Z,4.82
2023-02-18T16:06:09.787Z,5.20
2023-02-18T16:08:37.013Z,5.30
2023-02-18T16:11:08.539Z,5.10
2023-02-18T16:16:03.994Z,5.00
2023-02-18T16:18:40.645Z,5.15
2023-02-18T16:21:38.099Z,5.20
2023-02-18T16:24:25.964Z,5.70
2023-02-18T16:26:57.713Z,5.78
2023-02-18T16:31:53.090Z,5.20
2023-02-18T16:34:20.231Z,5.10
2023-02-18T16:37:05.356Z,5.15
2023-02-18T16:39:35.192Z,6.15
2023-02-18T16:42:02.353Z,5.10
2023-02-18T16:44:29.237Z,5.50
2023-02-18T16:46:57.205Z,6.00
2023-02-18T16:49:24.242Z,5.93
2023-02-18T16:51:51.145Z,5.03
2023-02-18T16:54:18.503Z,5.28
2023-02-18T16:56:45.405Z,5.80
2023-02-18T16:59:12.568Z,6.07
2023-02-18T17:01:44.802Z,5.25
2023-02-18T17:04:15.002Z,5.18
2023-02-18T17:06:42.543Z,5.82
2023-02-18T17:09:27.674Z,5.65
2023-02-18T17:11:56.145Z,5.80
2023-02-18T17:14:23.672Z,5.50
2023-02-18T17:16:53.375Z,5.70
2023-02-18T17:19:20.859Z,5.55
2023-02-18T17:21:48.835Z,5.38
2023-02-18T17:24:18.215Z,5.43
2023-02-18T17:26:45.209Z,5.50
2023-02-18T17:29:12.347Z,5.35
2023-02-18T17:31:44.639Z,5.32
2023-02-18T17:34:16.434Z,4.93
2023-02-18T17:36:45.567Z,5.82
2023-02-18T17:39:17.484Z,5.30
2023-02-18T17:41:44.914Z,5.65
2023-02-18T17:44:22.135Z,5.57
2023-02-18T17:46:52.958Z,5.80
2023-02-18T17:49:19.753Z,5.03
2023-02-18T17:51:47.446Z,5.45
2023-02-18T17:54:17.568Z,4.78
2023-02-18T17:56:45.533Z,5.80
2023-02-18T17:59:13.373Z,5.47
2023-02-18T18:01:41.105Z,4.65
2023-02-18T18:04:15.410Z,5.50
2023-02-18T18:06:42.469Z,5.72
2023-02-18T18:09:09.499Z,5.60
2023-02-18T18:11:36.889Z,5.20
2023-02-18T18:14:03.813Z,5.32
2023-02-18T18:16:30.983Z,5.65
2023-02-18T18:18:57.745Z,5.32
2023-02-18T18:21:32.538Z,4.82
2023-02-18T18:23:59.427Z,5.72
2023-02-18T18:26:26.667Z,5.38
2023-02-18T18:28:53.807Z,5.18
2023-02-18T18:31:21.395Z,5.18
2023-02-18T18:33:51.432Z,6.68
2023-02-18T18:36:20.138Z,5.78
2023-02-18T18:38:47.001Z,6.03
2023-02-18T18:41:19.417Z,5.43
2023-02-18T18:43:46.333Z,5.95
2023-02-18T18:46:13.602Z,5.65
2023-02-18T18:48:40.419Z,6.05
2023-02-18T18:51:07.531Z,5.35
2023-02-18T18:53:35.603Z,6.57
2023-02-18T18:56:05.697Z,5.63
2023-02-18T18:58:32.846Z,5.25
2023-02-18T19:01:02.675Z,5.93
2023-02-18T19:03:30.770Z,5.97
2023-02-18T19:05:58.288Z,5.90
2023-02-18T19:08:25.568Z,6.45
2023-02-18T19:10:54.742Z,5.85
2023-02-18T19:13:22.940Z,5.40
2023-02-18T19:15:53.488Z,5.70
2023-02-18T19:18:21.664Z,5.88
2023-02-18T19:20:48.912Z,5.63
2023-02-18T19:23:15.678Z,5.70
2023-02-18T19:25:42.812Z,5.65
2023-02-18T19:28:13.866Z,6.13
2023-02-18T19:30:42.480Z,5.43
2023-02-18T19:33:12.699Z,5.63
2023-02-18T19:35:41.134Z,5.45
2023-02-18T19:38:13.221Z,6.28
2023-02-18T19:40:41.089Z,5.82
2023-02-18T19:43:08.862Z,4.82
2023-02-18T19:45:41.165Z,4.82
2023-02-18T19:48:41.790Z,5.20
2023-02-18T19:51:09.928Z,5.20
2023-02-18T19:53:42.666Z,5.60
2023-02-18T19:56:09.611Z,5.20
2023-02-18T19:58:37.307Z,5.53
2023-02-18T20:01:04.610Z,5.65
2023-02-18T20:03:31.615Z,5.32
2023-02-18T20:05:58.445Z,5.13
2023-02-18T20:08:25.261Z,4.88
2023-02-18T20:10:59.195Z,4.97
2023-02-18T20:13:26.561Z,4.80
2023-02-18T20:15:53.361Z,5.20
2023-02-18T20:18:20.167Z,5.45
2023-02-18T20:20:48.821Z,5.60
2023-02-18T20:23:15.780Z,5.30
2023-02-18T20:25:42.566Z,5.88
2023-02-18T20:28:09.405Z,5.57
2023-02-18T20:30:36.274Z,5.00
2023-02-18T20:33:03.441Z,5.60
2023-02-18T20:35:30.384Z,5.47
2023-02-18T20:37:57.229Z,6.00
2023-02-18T20:40:24.383Z,6.30
2023-02-18T20:42:51.149Z,5.65
2023-02-18T20:45:18.362Z,6.30
2023-02-18T20:47:45.403Z,5.72
2023-02-18T20:50:12.189Z,5.72
2023-02-18T20:52:39.799Z,6.18
2023-02-18T20:55:06.553Z,6.20
2023-02-18T20:57:33.329Z,6.68
2023-02-18T21:00:00.245Z,6.50
2023-02-18T21:02:28.134Z,6.25
2023-02-18T21:04:55.462Z,6.57
2023-02-18T21:07:22.781Z,6.47
2023-02-18T21:09:49.696Z,6.55
2023-02-18T21:12:16.459Z,6.32
2023-02-18T21:14:43.183Z,6.38
2023-02-18T21:17:09.922Z,6.32
2023-02-18T21:19:36.718Z,6.13
2023-02-18T21:22:03.681Z,6.78
2023-02-18T21:24:31.981Z,7.55
2023-02-18T21:26:58.832Z,7.68
2023-02-18T21:29:26.176Z,8.32
2023-02-18T21:31:53.294Z,7.55
2023-02-18T21:34:21.115Z,7.70
2023-02-18T21:36:48.480Z,7.30
2023-02-18T21:39:15.262Z,7.20
2023-02-18T21:41:42.088Z,7.38
2023-02-18T21:44:10.094Z,6.82
2023-02-18T21:46:37.405Z,7.00
2023-02-18T21:49:12.419Z,6.85
2023-02-18T21:51:57.209Z,7.72
2023-02-18T21:54:31.332Z,8.30
2023-02-18T21:56:59.365Z,7.15
2023-02-18T21:59:28.246Z,7.32
2023-02-18T22:01:56.944Z,6.55
2023-02-18T22:04:24.117Z,7.15
2023-02-18T22:06:50.877Z,7.18
2023-02-18T22:09:17.607Z,7.00
2023-02-18T22:11:44.832Z,7.00
2023-02-18T22:14:13.855Z,7.38
2023-02-18T22:16:41.621Z,7.05
2023-02-18T22:19:08.930Z,6.53
2023-02-18T22:21:35.744Z,7.20
2023-02-18T22:24:05.433Z,6.82
2023-02-18T22:26:32.290Z,6.53
2023-02-18T22:29:00.284Z,7.18
2023-02-18T22:31:30.002Z,6.47
2023-02-18T22:33:59.446Z,6.68
2023-02-18T22:36:27.695Z,6.53
2023-02-18T22:38:54.809Z,6.85
2023-02-18T22:41:24.000Z,7.00
2023-02-18T22:44:12.365Z,6.72
2023-02-18T22:46:39.857Z,6.80
2023-02-18T22:49:07.526Z,6.78
2023-02-18T22:51:40.287Z,6.88
2023-02-18T22:54:11.258Z,7.07
2023-02-18T22:56:38.189Z,5.45
2023-02-18T22:59:05.134Z,6.38
2023-02-18T23:01:33.980Z,6.00
2023-02-18T23:04:08.678Z,7.57
2023-02-18T23:06:37.013Z,6.22
2023-02-18T23:09:04.933Z,6.63
2023-02-18T23:11:31.938Z,6.72
2023-02-18T23:14:17.406Z,6.20
2023-02-18T23:17:04.740Z,6.50
2023-02-18T23:19:32.918Z,6.57
2023-02-18T23:21:59.678Z,6.55
2023-02-18T23:24:26.614Z,6.95
2023-02-18T23:26:53.370Z,6.40
2023-02-18T23:29:20.239Z,6.88
2023-02-18T23:31:47.178Z,6.40
2023-02-18T23:34:15.762Z,7.00
2023-02-18T23:36:43.348Z,6.57
2023-02-18T23:39:13.526Z,6.90
2023-02-18T23:41:40.430Z,7.47
2023-02-18T23:44:10.108Z,7.32
2023-02-18T23:46:37.281Z,7.22
2023-02-18T23:49:05.048Z,7.25
2023-02-18T23:51:32.370Z,6.95
2023-02-18T23:54:03.443Z,7.22
2023-02-18T23:56:30.248Z,8.02
2023-02-18T23:59:00.613Z,8.15
